Angus, Minnesota
Current Conditions -  °F | °C
As of 2:55 AM on Wednesday 26 Nov 2014 (Local Time) from KCKN Reporting Station
Scattered Clouds Scattered Clouds  
Wind Chill: -23°   Ceiling: Unl
Heat Index: -13°   Visibility: 10mi
Dew Point: -15°   Wind: 18mph
Humidity: 85%   Direction: 360°N
Pressure: 30.23"   Gusts: 24mph
Location:  48.08°N, 96.7°W
Report Text: KCKN 260855Z AUTO 36016G21KT 10SM SCT110 M13/M15 A3023 RMK AO2
Loading
Personal Weather Stations






























Interactive Weather Map New forecast layout! Learn more

10-Day Weather Forecast

Advertisements
Track Severe Weather on mobile